Time;durP1;ratioP1;P1;durP2;ratioP2;P2;SDS_P1;SDS_P2;PMS_P1;PMS_P2;Temp;Humidity;BMP_temperature;BMP_pressure;BME280_temperature;BME280_humidity;BME280_pressure;Samples;Min_cycle;Max_cycle;Signal;HPM_P1;HPM_P2
2023/09/08 00:02:05;;;;;;;9.32;3.88;;;;;;;17.15;60.87;98392.97;10445780;28;20124;-69
2023/09/08 00:07:26;;;;;;;6.40;3.70;;;;;;;17.10;60.96;98391.31;10445182;28;20069;-69
2023/09/08 00:12:47;;;;;;;8.07;3.80;;;;;;;17.10;61.35;98399.78;10431630;28;20045;-69
2023/09/08 00:18:08;;;;;;;5.25;3.58;;;;;;;16.97;61.56;98392.03;10445130;28;20064;-71
2023/09/08 00:23:28;;;;;;;5.85;3.85;;;;;;;16.91;62.01;98391.72;10444685;28;20068;-70
2023/09/08 00:28:49;;;;;;;6.53;3.83;;;;;;;16.86;61.97;98380.22;10456353;28;20132;-70
2023/09/08 00:34:10;;;;;;;9.93;4.05;;;;;;;16.83;62.12;98381.47;10458201;28;20125;-70
2023/09/08 00:39:31;;;;;;;5.38;3.83;;;;;;;16.80;62.48;98371.44;10457473;28;20065;-70
2023/09/08 00:44:52;;;;;;;5.10;3.58;;;;;;;16.72;62.85;98379.47;10443951;28;20064;-70
2023/09/08 00:50:12;;;;;;;7.28;4.45;;;;;;;16.65;63.04;98376.91;10442766;28;20120;-70
2023/09/08 00:55:33;;;;;;;7.15;4.53;;;;;;;16.55;62.98;98379.91;10416353;28;20116;-71
2023/09/08 01:00:54;;;;;;;9.05;4.53;;;;;;;16.50;63.24;98378.97;10443366;28;20045;-71
2023/09/08 01:06:15;;;;;;;9.32;3.85;;;;;;;16.45;63.24;98379.38;10499531;28;20063;-71
2023/09/08 01:11:36;;;;;;;9.10;4.38;;;;;;;16.39;63.79;98382.56;10484228;28;20111;-71
2023/09/08 01:16:57;;;;;;;6.25;4.10;;;;;;;16.36;64.05;98386.63;10484265;28;20528;-71
2023/09/08 01:22:37;;;;;;;6.95;4.22;;;;;;;16.35;64.31;98378.81;10436155;28;20071;-71
2023/09/08 01:28:00;;;;;;;6.90;4.35;;;;;;;16.35;64.39;98384.44;10428644;28;20115;-70
2023/09/08 01:33:21;;;;;;;6.65;4.38;;;;;;;16.33;64.89;98384.34;10414984;28;20051;-71
2023/09/08 01:38:42;;;;;;;7.45;4.35;;;;;;;16.25;64.38;98376.91;10428192;28;20113;-71
2023/09/08 01:44:07;;;;;;;7.07;4.32;;;;;;;16.18;64.64;98374.34;10441998;28;20395;-70
2023/09/08 01:49:28;;;;;;;8.02;4.15;;;;;;;16.15;64.91;98370.72;10429403;28;20124;-70
2023/09/08 01:54:49;;;;;;;7.57;4.40;;;;;;;16.13;65.18;98378.31;10413959;28;20064;-70
2023/09/08 02:00:11;;;;;;;6.95;3.97;;;;;;;16.07;65.27;98378.69;10441628;28;20118;-70
2023/09/08 02:05:38;;;;;;;6.35;4.22;;;;;;;16.05;65.68;98378.59;10427919;28;20080;-70
2023/09/08 02:10:59;;;;;;;8.68;4.25;;;;;;;15.96;65.82;98373.84;10428050;28;20075;-70
2023/09/08 02:16:20;;;;;;;7.13;4.82;;;;;;;15.97;65.85;98376.03;10413479;28;20052;-71
2023/09/08 02:21:44;;;;;;;8.55;4.38;;;;;;;15.88;66.06;98368.50;10441586;28;20072;-70
2023/09/08 02:27:04;;;;;;;7.60;4.45;;;;;;;15.86;66.22;98367.66;10427704;28;20037;-70
2023/09/08 02:32:26;;;;;;;7.25;4.43;;;;;;;15.92;66.67;98362.34;10413266;28;20127;-71
2023/09/08 02:37:46;;;;;;;8.95;5.43;;;;;;;15.86;66.31;98353.56;10440377;28;20072;-70
2023/09/08 02:43:07;;;;;;;10.52;5.45;;;;;;;15.82;66.89;98351.25;10440329;28;20064;-70
2023/09/08 02:48:28;;;;;;;9.23;5.00;;;;;;;15.77;66.76;98357.28;10440307;28;20069;-71
2023/09/08 02:53:49;;;;;;;7.82;4.80;;;;;;;15.70;67.04;98356.91;10454058;28;20060;-70
2023/09/08 02:59:10;;;;;;;12.10;4.53;;;;;;;15.63;67.28;98355.13;10455241;28;20462;-70
2023/09/08 03:04:31;;;;;;;6.60;4.90;;;;;;;15.56;67.89;98353.28;10484094;28;20468;-70
2023/09/08 03:09:52;;;;;;;8.70;4.53;;;;;;;15.51;67.94;98353.66;10474932;28;20182;-70
2023/09/08 03:15:14;;;;;;;5.80;4.35;;;;;;;15.42;68.16;98344.00;10461738;28;20064;-70
2023/09/08 03:20:35;;;;;;;7.07;4.63;;;;;;;15.38;68.53;98347.31;10474792;28;20071;-70
2023/09/08 03:25:56;;;;;;;8.75;4.82;;;;;;;15.34;68.66;98346.34;10474386;28;20044;-70
2023/09/08 03:31:19;;;;;;;8.77;4.90;;;;;;;15.26;68.81;98346.63;10466517;28;20473;-70
2023/09/08 03:36:39;;;;;;;7.90;4.85;;;;;;;15.20;69.11;98354.69;10420343;28;20498;-70
2023/09/08 03:42:01;;;;;;;7.53;4.80;;;;;;;15.16;69.49;98346.75;10446333;28;20053;-70
2023/09/08 03:47:22;;;;;;;7.72;4.70;;;;;;;15.13;69.45;98356.41;10432282;28;20072;-70
2023/09/08 03:52:42;;;;;;;8.50;4.60;;;;;;;15.12;69.73;98354.94;10432255;28;20069;-71
2023/09/08 03:58:03;;;;;;;7.47;4.43;;;;;;;15.06;69.77;98351.78;10418238;28;20540;-70
2023/09/08 04:03:24;;;;;;;7.35;5.15;;;;;;;15.02;69.83;98353.59;10431599;28;20049;-70
2023/09/08 04:08:46;;;;;;;9.23;4.85;;;;;;;14.98;70.14;98344.94;10460491;28;20065;-70
2023/09/08 04:14:06;;;;;;;10.43;5.18;;;;;;;14.95;70.15;98341.25;10445428;28;20080;-70
2023/09/08 04:19:28;;;;;;;11.88;5.43;;;;;;;14.97;70.54;98349.81;10431349;28;20036;-70
2023/09/08 04:24:49;;;;;;;7.88;5.00;;;;;;;14.99;70.41;98355.56;10417536;28;20137;-70
2023/09/08 04:30:12;;;;;;;6.55;4.85;;;;;;;15.00;70.71;98348.59;10447699;28;20045;-71
2023/09/08 04:35:33;;;;;;;6.10;4.70;;;;;;;15.04;70.76;98357.25;10458522;28;20187;-70
2023/09/08 04:40:54;;;;;;;9.77;5.20;;;;;;;15.07;70.59;98358.88;10455108;28;20402;-70
2023/09/08 04:46:15;;;;;;;11.48;4.90;;;;;;;15.20;70.74;98365.22;10424523;28;20033;-70
2023/09/08 04:51:37;;;;;;;10.43;5.88;;;;;;;15.45;70.86;98359.66;10408193;28;20044;-70
2023/09/08 04:56:58;;;;;;;10.68;5.30;;;;;;;15.80;70.62;98364.47;10402373;28;20065;-70
2023/09/08 05:02:41;;;;;;;8.13;5.25;;;;;;;16.30;70.60;98370.13;10429077;28;20073;-70
2023/09/08 05:08:01;;;;;;;8.07;4.90;;;;;;;16.87;70.07;98353.47;10443092;28;20472;-70
2023/09/08 05:13:26;;;;;;;9.02;5.05;;;;;;;20.49;67.20;98368.53;10442466;28;20065;-71
2023/09/08 05:18:53;;;;;;;8.63;4.95;;;;;;;24.78;59.46;98364.34;10430014;28;20540;-70
2023/09/08 05:24:14;;;;;;;6.28;4.93;;;;;;;28.21;54.10;98367.91;10414926;28;20120;-69
2023/09/08 05:29:35;;;;;;;9.07;4.82;;;;;;;30.43;46.03;98368.63;10441737;28;20121;-70
2023/09/08 05:34:55;;;;;;;8.98;5.15;;;;;;;32.51;39.50;98376.16;10456877;28;20076;-70
2023/09/08 05:40:16;;;;;;;8.25;5.22;;;;;;;33.84;34.48;98370.13;10424952;28;20073;-70
2023/09/08 05:45:37;;;;;;;11.00;5.00;;;;;;;35.70;31.00;98378.22;10452465;28;20041;-72
2023/09/08 05:50:58;;;;;;;10.17;4.77;;;;;;;36.77;27.14;98369.00;10439393;28;20108;-72
2023/09/08 05:56:20;;;;;;;7.70;4.65;;;;;;;38.52;24.85;98380.38;10439068;28;20075;-72
2023/09/08 06:01:41;;;;;;;9.00;4.65;;;;;;;40.23;22.40;98382.63;10458363;28;20083;-72
2023/09/08 06:07:03;;;;;;;10.20;4.90;;;;;;;41.26;19.79;98377.34;10454892;28;20052;-72
2023/09/08 06:12:25;;;;;;;10.43;4.93;;;;;;;42.56;18.45;98379.09;10469206;28;20536;-72
2023/09/08 06:17:46;;;;;;;6.78;4.28;;;;;;;44.08;16.70;98372.28;10401552;28;20078;-73
2023/09/08 06:23:08;;;;;;;6.30;4.00;;;;;;;46.52;14.08;98365.69;10415597;28;20115;-73
2023/09/08 06:28:29;;;;;;;4.68;3.90;;;;;;;49.62;12.40;98375.03;10440314;28;20037;-74
2023/09/08 06:33:51;;;;;;;6.65;4.53;;;;;;;51.36;10.29;98367.56;10440795;28;20483;-73
2023/09/08 06:39:13;;;;;;;8.57;4.03;;;;;;;52.34;9.60;98363.00;10443242;28;20168;-73
2023/09/08 06:44:34;;;;;;;7.50;3.97;;;;;;;53.80;8.36;98364.63;10445210;28;20489;-73
2023/09/08 06:49:57;;;;;;;9.82;3.60;;;;;;;54.72;7.12;98361.94;10448396;28;20095;-73
2023/09/08 06:55:19;;;;;;;6.03;3.33;;;;;;;54.87;7.35;98364.84;10448331;28;20526;-74
2023/09/08 07:00:41;;;;;;;4.63;3.15;;;;;;;55.76;7.31;98357.56;10421287;28;20098;-74
2023/09/08 07:06:03;;;;;;;4.07;3.17;;;;;;;56.03;7.17;98367.38;10433840;28;20132;-74
2023/09/08 07:11:24;;;;;;;7.38;3.10;;;;;;;56.92;6.02;98364.97;10447784;28;20112;-75
2023/09/08 07:16:45;;;;;;;5.88;3.17;;;;;;;56.78;5.78;98364.28;10407274;28;20073;-72
2023/09/08 07:22:06;;;;;;;4.95;2.90;;;;;;;56.59;6.14;98362.66;10403677;28;20415;-74
2023/09/08 07:27:27;;;;;;;5.82;3.20;;;;;;;58.59;4.88;98357.34;10378146;28;20081;-73
2023/09/08 07:32:48;;;;;;;7.00;3.10;;;;;;;57.77;5.51;98354.38;10405458;28;20120;-74
2023/09/08 07:38:10;;;;;;;7.18;3.25;;;;;;;57.88;4.91;98355.25;10378481;28;20069;-74
2023/09/08 07:43:31;;;;;;;5.47;2.72;;;;;;;58.07;4.81;98359.09;10419151;28;20116;-74
2023/09/08 07:48:53;;;;;;;11.55;3.63;;;;;;;57.59;5.21;98354.91;10404723;28;20037;-74
2023/09/08 07:54:14;;;;;;;6.47;3.30;;;;;;;57.66;4.71;98357.19;10405162;28;20069;-74
2023/09/08 07:59:35;;;;;;;5.35;2.97;;;;;;;58.56;4.93;98347.22;10404629;28;20142;-73
2023/09/08 08:04:58;;;;;;;7.73;2.90;;;;;;;59.05;4.77;98360.00;10421042;28;20136;-74
2023/09/08 08:10:19;;;;;;;5.20;2.85;;;;;;;59.66;4.58;98355.41;10418197;28;20045;-74
2023/09/08 08:15:42;;;;;;;9.30;3.50;;;;;;;59.54;4.23;98342.53;10418858;28;20068;-73
2023/09/08 08:21:03;;;;;;;8.05;3.28;;;;;;;60.62;3.50;98343.84;10374798;28;20042;-73
2023/09/08 08:26:27;;;;;;;6.30;3.00;;;;;;;60.17;4.10;98342.22;10415844;28;20065;-74
2023/09/08 08:31:48;;;;;;;8.35;3.30;;;;;;;58.81;4.19;98332.94;10415646;28;20069;-74
2023/09/08 08:37:09;;;;;;;5.10;3.42;;;;;;;59.30;4.39;98333.59;10417894;28;20536;-74
2023/09/08 08:42:32;;;;;;;4.60;3.78;;;;;;;59.41;4.25;98330.69;10417077;28;20069;-74
2023/09/08 08:47:53;;;;;;;4.22;3.83;;;;;;;60.10;4.50;98327.25;10402952;28;20073;-75
2023/09/08 08:53:14;;;;;;;5.15;3.63;;;;;;;59.42;4.59;98326.03;10416459;28;20120;-74
2023/09/08 08:58:36;;;;;;;7.45;4.10;;;;;;;59.08;4.30;98321.34;10388791;28;20113;-73
2023/09/08 09:03:58;;;;;;;9.63;4.32;;;;;;;59.33;4.07;98313.66;10423861;28;20087;-74
2023/09/08 09:09:19;;;;;;;8.67;4.90;;;;;;;59.17;3.81;98319.38;10429379;28;20368;-74
2023/09/08 09:14:46;;;;;;;5.72;4.55;;;;;;;59.07;4.72;98307.91;10443014;28;20068;-74
2023/09/08 09:20:17;;;;;;;6.53;4.55;;;;;;;57.89;4.87;98298.91;10416584;28;20080;-74
2023/09/08 09:25:38;;;;;;;6.75;4.32;;;;;;;56.75;5.57;98294.84;10429139;28;20080;-73
2023/09/08 09:30:59;;;;;;;6.03;4.07;;;;;;;57.42;5.31;98307.41;10429112;28;20041;-75
2023/09/08 09:36:20;;;;;;;6.23;5.10;;;;;;;57.99;4.77;98306.00;10441958;28;20041;-74
2023/09/08 09:41:41;;;;;;;6.67;5.07;;;;;;;57.14;4.89;98292.72;10441917;28;20065;-74
2023/09/08 09:47:03;;;;;;;5.15;4.55;;;;;;;56.71;5.32;98283.34;10428321;28;20048;-74
2023/09/08 09:52:25;;;;;;;6.50;4.40;;;;;;;56.63;5.19;98289.56;10441611;28;20053;-74
2023/09/08 09:57:46;;;;;;;5.15;4.65;;;;;;;56.64;5.33;98288.66;10441128;28;20292;-73
2023/09/08 10:03:08;;;;;;;7.57;4.18;;;;;;;55.03;6.38;98279.44;10457010;28;20060;-73
2023/09/08 10:08:32;;;;;;;;;;;;;;;54.30;6.99;98278.13;10471574;28;20402;-74
2023/09/08 10:13:55;;;;;;;3.55;3.25;;;;;;;53.79;7.11;98273.72;10470504;28;19921;-74
2023/09/08 10:19:19;;;;;;;3.60;3.30;;;;;;;55.52;6.44;98274.16;10433398;28;20172;-74
2023/09/08 10:24:40;;;;;;;4.22;3.53;;;;;;;55.09;5.95;98269.09;10388796;28;20045;-73
2023/09/08 10:30:04;;;;;;;4.60;2.92;;;;;;;53.28;6.56;98258.63;10404184;28;20047;-73
2023/09/08 10:35:25;;;;;;;2.65;2.30;;;;;;;52.55;7.14;98260.50;10418968;28;20041;-73
2023/09/08 10:40:46;;;;;;;5.47;2.15;;;;;;;52.16;7.22;98247.94;10416280;28;20048;-73
2023/09/08 10:46:08;;;;;;;2.80;2.05;;;;;;;50.47;8.32;98242.47;10464792;28;20049;-72
2023/09/08 10:51:30;;;;;;;4.55;2.30;;;;;;;50.31;7.68;98232.69;10426659;28;20049;-73
2023/09/08 10:56:55;;;;;;;5.05;2.20;;;;;;;48.93;8.67;98224.94;10429887;28;20056;-74
2023/09/08 11:02:41;;;;;;;4.60;2.30;;;;;;;50.28;8.72;98229.19;10416671;28;20053;-74
2023/09/08 11:08:03;;;;;;;3.63;2.00;;;;;;;51.71;7.67;98225.31;10420153;28;20109;-73
2023/09/08 11:13:25;;;;;;;4.85;2.00;;;;;;;52.58;7.28;98222.97;10427835;28;20403;-73
2023/09/08 11:18:45;;;;;;;5.30;1.77;;;;;;;53.04;6.89;98222.28;10422244;28;20065;-73
2023/09/08 11:24:07;;;;;;;2.45;1.85;;;;;;;53.54;6.65;98218.78;10399540;28;20037;-73
2023/09/08 11:29:27;;;;;;;4.65;2.03;;;;;;;52.87;6.88;98211.25;10405996;28;20122;-73
2023/09/08 11:34:48;;;;;;;3.88;2.10;;;;;;;52.21;7.03;98219.84;10405689;28;20045;-73
2023/09/08 11:40:11;;;;;;;3.47;1.77;;;;;;;51.20;6.69;98212.88;10416287;28;20041;-72
2023/09/08 11:45:34;;;;;;;4.05;1.98;;;;;;;45.51;8.70;98205.16;10402174;28;20040;-73
2023/09/08 11:50:56;;;;;;;3.60;2.40;;;;;;;38.71;14.37;98212.00;10418142;28;20121;-73
2023/09/08 11:56:16;;;;;;;4.03;2.80;;;;;;;36.12;16.70;98205.81;10418751;28;20061;-72
2023/09/08 12:01:38;;;;;;;3.85;2.75;;;;;;;34.86;18.26;98208.91;10404330;28;20072;-73
2023/09/08 12:06:59;;;;;;;4.25;2.35;;;;;;;33.45;18.56;98201.47;10418641;28;20045;-73
2023/09/08 12:12:20;;;;;;;4.30;2.10;;;;;;;32.46;18.96;98210.09;10404260;28;20049;-72
2023/09/08 12:17:48;;;;;;;4.60;2.38;;;;;;;31.33;20.18;98201.09;10404080;28;20046;-71
2023/09/08 12:23:22;;;;;;;5.50;2.80;;;;;;;31.13;21.60;98198.34;10403966;28;20038;-71
2023/09/08 12:28:43;;;;;;;6.57;2.40;;;;;;;30.81;21.59;98199.28;10403811;28;20045;-70
2023/09/08 12:34:04;;;;;;;4.35;2.40;;;;;;;30.70;21.42;98189.97;10403728;28;20071;-70
2023/09/08 12:39:25;;;;;;;3.97;2.70;;;;;;;30.59;21.67;98182.78;10402289;28;20384;-70
2023/09/08 12:44:47;;;;;;;7.30;2.80;;;;;;;30.66;21.91;98184.22;10403043;28;20229;-71
2023/09/08 12:50:09;;;;;;;3.78;2.30;;;;;;;30.54;22.17;98173.47;10402967;28;20068;-70
2023/09/08 12:55:31;;;;;;;4.30;2.47;;;;;;;30.48;21.95;98177.09;10402431;28;20045;-70
2023/09/08 13:00:52;;;;;;;5.97;3.08;;;;;;;30.24;22.49;98177.22;10402576;28;20431;-70
2023/09/08 13:06:13;;;;;;;3.73;2.33;;;;;;;30.20;23.10;98174.34;10415470;28;20081;-69
2023/09/08 13:11:34;;;;;;;4.30;2.50;;;;;;;30.24;22.61;98173.63;10426179;28;20052;-69
2023/09/08 13:16:55;;;;;;;3.28;2.10;;;;;;;30.34;22.30;98174.28;10446169;28;20509;-70
2023/09/08 13:22:16;;;;;;;6.68;2.28;;;;;;;30.13;21.85;98161.44;10453647;28;20044;-70
2023/09/08 13:27:37;;;;;;;4.47;2.50;;;;;;;30.20;22.19;98148.41;10428416;28;20071;-70
2023/09/08 13:32:58;;;;;;;6.43;2.83;;;;;;;30.07;23.57;98147.03;10441871;28;20395;-78
2023/09/08 13:38:19;;;;;;;4.63;2.83;;;;;;;29.71;24.32;98142.81;10414520;28;20041;-71
2023/09/08 13:43:40;;;;;;;3.95;2.60;;;;;;;29.86;24.03;98141.34;10450885;28;20124;-70
2023/09/08 13:49:06;;;;;;;4.07;2.42;;;;;;;29.89;24.04;98147.78;10415801;28;20384;-71
2023/09/08 13:54:27;;;;;;;9.60;2.63;;;;;;;29.83;24.31;98136.31;10405903;28;20045;-71
2023/09/08 13:59:50;;;;;;;5.85;2.72;;;;;;;29.68;24.07;98140.66;10414268;28;20041;-71
2023/09/08 14:05:11;;;;;;;6.85;2.50;;;;;;;29.52;24.74;98139.25;10426916;28;20053;-70
2023/09/08 14:10:38;;;;;;;4.88;2.58;;;;;;;29.60;24.74;98130.59;10428603;28;20045;-71
2023/09/08 14:16:11;;;;;;;5.50;2.27;;;;;;;29.73;24.83;98128.44;10455520;28;20049;-70
2023/09/08 14:21:32;;;;;;;7.57;2.85;;;;;;;29.51;24.86;98137.09;10440511;28;20351;-71
2023/09/08 14:26:54;;;;;;;3.90;2.33;;;;;;;29.12;25.19;98128.47;10440583;28;20044;-71
2023/09/08 14:32:15;;;;;;;3.30;2.50;;;;;;;29.09;25.73;98124.19;10455268;28;20037;-71
2023/09/08 14:37:37;;;;;;;3.17;2.10;;;;;;;28.86;25.92;98122.72;10415718;28;20076;-71
2023/09/08 14:42:58;;;;;;;4.43;2.20;;;;;;;28.77;26.01;98119.81;10413654;28;20107;-72
2023/09/08 14:48:19;;;;;;;7.30;2.65;;;;;;;28.84;25.93;98111.91;10398988;28;20091;-72
2023/09/08 14:53:41;;;;;;;6.53;2.50;;;;;;;28.52;26.70;98118.34;10399163;28;20045;-76
2023/09/08 14:59:02;;;;;;;4.15;2.38;;;;;;;28.43;26.78;98111.84;10390632;28;20446;-75
2023/09/08 15:04:24;;;;;;;6.43;2.28;;;;;;;28.30;26.73;98101.06;10379117;28;20080;-74
2023/09/08 15:09:45;;;;;;;4.57;2.38;;;;;;;28.10;26.87;98102.41;10420290;28;20045;-74
2023/09/08 15:15:07;;;;;;;3.78;2.40;;;;;;;28.05;27.03;98106.69;10392490;28;20045;-75
2023/09/08 15:20:29;;;;;;;9.33;2.47;;;;;;;27.93;27.57;98100.91;10392466;28;20045;-82
2023/09/08 15:25:52;;;;;;;5.22;2.38;;;;;;;27.86;27.43;98099.44;10382491;28;20782;-76
2023/09/08 15:31:17;;;;;;;4.32;2.55;;;;;;;27.76;27.87;98100.09;10400744;28;20045;-78
2023/09/08 15:36:39;;;;;;;8.35;2.67;;;;;;;27.75;27.41;98095.09;10446487;28;20045;-71
2023/09/08 15:42:00;;;;;;;7.57;2.33;;;;;;;27.67;27.44;98095.75;10432844;28;20045;-68
2023/09/08 15:47:21;;;;;;;4.70;2.30;;;;;;;27.53;28.40;98096.38;10446291;28;20074;-68
2023/09/08 15:52:42;;;;;;;3.45;2.25;;;;;;;27.23;28.75;98091.19;10445839;28;20545;-65
2023/09/08 15:58:04;;;;;;;4.03;2.47;;;;;;;27.17;28.56;98090.41;10432089;28;20041;-70
2023/09/08 16:03:25;;;;;;;6.60;2.70;;;;;;;27.06;29.07;98090.34;10445151;28;20061;-68
2023/09/08 16:08:47;;;;;;;7.27;2.50;;;;;;;27.00;29.15;98081.66;10431650;28;20522;-68
2023/09/08 16:14:08;;;;;;;4.25;2.58;;;;;;;26.87;28.75;98080.13;10444752;28;20400;-71
2023/09/08 16:19:29;;;;;;;5.05;2.30;;;;;;;26.79;29.20;98088.66;10417247;28;20139;-67
2023/09/08 16:24:51;;;;;;;8.70;2.63;;;;;;;26.67;29.30;98092.13;10405104;28;20053;-69
2023/09/08 16:30:12;;;;;;;5.15;2.53;;;;;;;26.56;29.67;98084.88;10389462;28;20045;-67
2023/09/08 16:35:33;;;;;;;6.78;2.28;;;;;;;26.44;29.75;98087.59;10389337;28;20048;-70
2023/09/08 16:40:57;;;;;;;4.22;2.40;;;;;;;26.34;30.10;98090.31;10386934;28;20068;-69
2023/09/08 16:46:20;;;;;;;5.30;2.88;;;;;;;26.21;30.57;98086.63;10402861;28;20049;-68
2023/09/08 16:51:44;;;;;;;5.28;2.50;;;;;;;26.07;30.82;98092.91;10390029;28;20116;-71
2023/09/08 16:57:05;;;;;;;3.83;2.50;;;;;;;25.92;30.81;98089.16;10388648;28;20042;-71
2023/09/08 17:02:27;;;;;;;4.05;2.63;;;;;;;25.81;31.31;98096.16;10404988;28;20524;-66
2023/09/08 17:07:48;;;;;;;4.47;2.85;;;;;;;25.65;31.25;98093.06;10386318;28;20081;-69
2023/09/08 17:13:09;;;;;;;5.57;3.03;;;;;;;25.51;31.60;98090.00;10407877;28;20056;-70
2023/09/08 17:18:30;;;;;;;7.05;3.40;;;;;;;25.33;31.93;98091.19;10384335;28;20046;-70
2023/09/08 17:23:51;;;;;;;6.85;3.17;;;;;;;25.15;32.68;98099.47;10389779;28;20052;-76
2023/09/08 17:29:12;;;;;;;5.15;3.10;;;;;;;25.05;32.77;98099.31;10417136;28;20061;-72
2023/09/08 17:34:33;;;;;;;6.32;3.15;;;;;;;24.84;33.22;98098.25;10387033;28;20046;-70
2023/09/08 17:39:54;;;;;;;6.03;3.58;;;;;;;24.69;33.63;98102.97;10401692;28;20042;-70
2023/09/08 17:45:15;;;;;;;8.88;3.42;;;;;;;24.56;33.72;98104.19;10404071;28;20068;-75
2023/09/08 17:50:35;;;;;;;7.72;3.20;;;;;;;24.39;33.98;98102.44;10435370;28;20148;-72
2023/09/08 17:55:56;;;;;;;6.45;3.13;;;;;;;24.26;34.79;98098.63;10403591;28;20076;-74
2023/09/08 18:01:17;;;;;;;5.40;3.33;;;;;;;24.14;35.09;98101.25;10386472;28;20041;-74
2023/09/08 18:06:38;;;;;;;5.57;3.20;;;;;;;23.94;35.47;98101.56;10372836;28;20065;-73
2023/09/08 18:11:58;;;;;;;6.30;3.22;;;;;;;23.79;35.65;98105.50;10386162;28;20064;-71
2023/09/08 18:17:20;;;;;;;11.10;3.53;;;;;;;23.63;35.93;98106.59;10400217;28;20057;-71
2023/09/08 18:22:42;;;;;;;4.53;3.50;;;;;;;23.53;36.48;98114.88;10372370;28;20081;-71
2023/09/08 18:28:03;;;;;;;7.55;3.70;;;;;;;23.42;36.69;98116.06;10414570;28;20073;-71
2023/09/08 18:33:25;;;;;;;8.90;3.75;;;;;;;23.30;37.00;98116.53;10387362;28;20065;-68
2023/09/08 18:38:46;;;;;;;7.93;3.88;;;;;;;23.26;37.50;98121.38;10394242;28;20121;-73
2023/09/08 18:44:06;;;;;;;5.97;3.60;;;;;;;23.25;37.92;98114.97;10389899;28;20073;-71
2023/09/08 18:49:27;;;;;;;6.70;4.05;;;;;;;23.21;38.17;98117.72;10375271;28;20049;-71
2023/09/08 18:54:48;;;;;;;8.77;4.15;;;;;;;23.13;38.31;98120.38;10385333;28;20543;-70
2023/09/08 19:00:10;;;;;;;6.70;3.63;;;;;;;23.03;38.82;98105.91;10365039;28;20045;-71
2023/09/08 19:05:31;;;;;;;6.30;4.00;;;;;;;22.94;39.91;98132.72;10407351;28;20049;-72
2023/09/08 19:10:51;;;;;;;4.93;3.63;;;;;;;22.83;39.37;98129.59;10404584;28;20483;-70
2023/09/08 19:16:12;;;;;;;9.90;3.95;;;;;;;22.72;40.14;98130.72;10411066;28;20056;-71
2023/09/08 19:21:33;;;;;;;6.28;3.70;;;;;;;22.66;40.70;98130.56;10440950;28;20115;-71
2023/09/08 19:26:54;;;;;;;8.45;4.05;;;;;;;22.56;41.69;98141.69;10413264;28;20045;-71
2023/09/08 19:32:16;;;;;;;6.80;3.40;;;;;;;22.44;41.27;98136.41;10378685;28;20510;-71
2023/09/08 19:37:37;;;;;;;8.85;4.22;;;;;;;22.39;42.15;98136.94;10422462;28;20080;-71
2023/09/08 19:42:58;;;;;;;6.20;4.15;;;;;;;22.14;42.19;98139.13;10433133;28;20115;-69
2023/09/08 19:48:19;;;;;;;7.95;4.05;;;;;;;22.01;42.54;98137.31;10431939;28;20079;-69
2023/09/08 19:53:39;;;;;;;9.90;4.45;;;;;;;21.88;43.04;98147.59;10436361;28;20057;-69
2023/09/08 19:59:01;;;;;;;7.97;4.18;;;;;;;21.84;43.65;98141.06;10427820;28;20041;-70
2023/09/08 20:04:23;;;;;;;8.68;4.38;;;;;;;21.75;44.55;98134.44;10424135;28;20073;-69
2023/09/08 20:09:44;;;;;;;7.63;4.57;;;;;;;21.81;44.64;98148.06;10424130;28;20065;-69
2023/09/08 20:15:09;;;;;;;5.47;3.60;;;;;;;21.67;44.81;98142.69;10417108;28;20060;-69
2023/09/08 20:20:30;;;;;;;5.75;3.78;;;;;;;21.60;45.66;98138.22;10396790;28;20041;-69
2023/09/08 20:25:50;;;;;;;6.70;3.97;;;;;;;21.54;44.73;98144.47;10410538;28;20061;-69
2023/09/08 20:31:11;;;;;;;6.95;4.00;;;;;;;21.40;45.29;98158.91;10439156;28;20112;-70
2023/09/08 20:36:36;;;;;;;7.72;3.97;;;;;;;21.26;45.57;98147.13;10418949;28;20067;-70
2023/09/08 20:41:57;;;;;;;6.40;4.10;;;;;;;21.25;45.77;98148.50;10423962;28;20111;-70
2023/09/08 20:47:19;;;;;;;9.70;3.90;;;;;;;21.19;45.79;98151.13;10419493;28;20047;-70
2023/09/08 20:52:39;;;;;;;8.02;4.18;;;;;;;21.16;46.73;98146.78;10421508;28;20547;-69
2023/09/08 20:58:00;;;;;;;9.65;3.97;;;;;;;21.14;46.41;98153.13;10420874;28;20157;-70
2023/09/08 21:03:21;;;;;;;7.53;4.00;;;;;;;21.08;46.86;98149.34;10420771;28;20474;-70
2023/09/08 21:08:42;;;;;;;9.02;3.50;;;;;;;21.06;46.64;98143.63;10394095;28;20479;-70
2023/09/08 21:14:03;;;;;;;5.78;3.72;;;;;;;21.00;46.78;98149.06;10390647;28;20075;-70
2023/09/08 21:19:25;;;;;;;5.20;4.00;;;;;;;20.87;47.15;98150.78;10416672;28;20121;-70
2023/09/08 21:24:46;;;;;;;5.93;3.83;;;;;;;20.78;47.47;98144.13;10388287;28;20077;-71
2023/09/08 21:30:08;;;;;;;5.60;3.70;;;;;;;20.70;47.44;98143.13;10387919;28;20095;-70
2023/09/08 21:35:30;;;;;;;7.88;3.55;;;;;;;20.59;47.72;98150.56;10374103;28;20125;-70
2023/09/08 21:40:52;;;;;;;5.18;3.50;;;;;;;20.48;47.97;98155.16;10401251;28;20061;-70
2023/09/08 21:46:13;;;;;;;9.27;3.50;;;;;;;20.40;48.30;98152.00;10415695;28;20073;-70
2023/09/08 21:51:33;;;;;;;7.15;3.65;;;;;;;20.30;48.28;98146.69;10387090;28;20124;-69
2023/09/08 21:56:54;;;;;;;4.47;3.45;;;;;;;20.26;48.48;98148.63;10373343;28;20189;-70
2023/09/08 22:02:15;;;;;;;6.50;3.63;;;;;;;20.24;48.81;98151.41;10400564;28;20080;-70
2023/09/08 22:07:37;;;;;;;4.75;3.17;;;;;;;20.16;48.60;98157.50;10386224;28;20073;-69
2023/09/08 22:13:00;;;;;;;5.78;3.28;;;;;;;20.14;48.73;98146.09;10386932;28;20042;-69
2023/09/08 22:18:20;;;;;;;5.38;3.65;;;;;;;20.10;48.60;98148.81;10401231;28;20068;-70
2023/09/08 22:23:41;;;;;;;6.78;3.28;;;;;;;20.02;48.62;98152.06;10426947;28;20526;-70
2023/09/08 22:29:03;;;;;;;5.95;3.25;;;;;;;20.01;48.75;98152.72;10428461;28;20044;-70
2023/09/08 22:34:25;;;;;;;4.28;3.08;;;;;;;19.89;49.16;98147.31;10427326;28;20186;-69
2023/09/08 22:39:46;;;;;;;6.57;3.38;;;;;;;19.87;49.29;98143.66;10440939;28;20080;-70
2023/09/08 22:45:07;;;;;;;5.50;3.40;;;;;;;19.81;49.54;98140.63;10426795;28;20076;-70
2023/09/08 22:50:30;;;;;;;8.63;3.78;;;;;;;19.71;49.72;98143.81;10440680;28;20531;-70
2023/09/08 22:55:50;;;;;;;7.53;3.60;;;;;;;19.65;49.72;98140.72;10440302;28;20054;-70
2023/09/08 23:01:11;;;;;;;4.82;3.22;;;;;;;19.57;50.10;98141.16;10440368;28;20095;-70
2023/09/08 23:06:32;;;;;;;4.82;3.42;;;;;;;19.56;50.35;98145.34;10455023;28;20407;-69
2023/09/08 23:11:52;;;;;;;5.88;3.45;;;;;;;19.52;50.18;98139.53;10453222;28;20505;-70
2023/09/08 23:17:13;;;;;;;5.55;3.38;;;;;;;19.41;50.46;98140.50;10455060;28;20065;-70
2023/09/08 23:22:35;;;;;;;5.25;3.45;;;;;;;19.33;50.63;98137.34;10444933;28;20079;-70
2023/09/08 23:27:56;;;;;;;4.00;3.30;;;;;;;19.30;50.79;98141.47;10434080;28;20433;-70
2023/09/08 23:33:17;;;;;;;7.28;3.28;;;;;;;19.25;51.02;98137.75;10447239;28;20098;-70
2023/09/08 23:38:38;;;;;;;5.47;3.45;;;;;;;19.18;50.96;98121.91;10461087;28;20076;-70
2023/09/08 23:43:59;;;;;;;6.75;3.50;;;;;;;19.12;50.91;98127.34;10433173;28;20068;-70
2023/09/08 23:49:20;;;;;;;9.43;3.65;;;;;;;19.04;51.45;98122.06;10446759;28;20096;-70
2023/09/08 23:54:41;;;;;;;5.72;3.22;;;;;;;19.00;51.62;98115.50;10461488;28;20476;-69
